sensor_id;sensor_type;location;lat;lon;timestamp;temperature;humidity
57843;DHT22;43673;51.058;3.734;2022-11-15T14:36:20;13.10;99.90
57843;DHT22;43673;51.058;3.734;2022-11-15T16:40:48;12.50;99.90
57843;DHT22;43673;51.058;3.734;2022-11-15T17:11:54;12.80;99.90
57843;DHT22;43673;51.058;3.734;2022-11-15T17:30:47;12.90;99.90
57843;DHT22;43673;51.058;3.734;2022-11-15T19:42:49;13.10;99.90
57843;DHT22;43673;51.058;3.734;2022-11-15T19:45:15;13.10;99.90
57843;DHT22;43673;51.058;3.734;2022-11-15T19:47:41;13.20;99.90
57843;DHT22;43673;51.058;3.734;2022-11-15T19:50:15;13.20;99.90
57843;DHT22;43673;51.058;3.734;2022-11-15T19:52:49;13.20;99.90
57843;DHT22;43673;51.058;3.734;2022-11-15T19:55:26;13.10;99.90
57843;DHT22;43673;51.058;3.734;2022-11-15T19:58:34;13.30;99.90
57843;DHT22;43673;51.058;3.734;2022-11-15T20:01:03;13.30;99.90
57843;DHT22;43673;51.058;3.734;2022-11-15T20:03:55;13.30;99.90
57843;DHT22;43673;51.058;3.734;2022-11-15T20:14:16;13.30;99.90
57843;DHT22;43673;51.058;3.734;2022-11-15T20:16:46;13.30;99.90
57843;DHT22;43673;51.058;3.734;2022-11-15T20:27:46;13.30;99.90
57843;DHT22;43673;51.058;3.734;2022-11-15T20:34:02;13.20;99.90
57843;DHT22;43673;51.058;3.734;2022-11-15T20:36:30;13.20;99.90
57843;DHT22;43673;51.058;3.734;2022-11-15T20:38:58;13.20;99.90
57843;DHT22;43673;51.058;3.734;2022-11-15T20:51:55;13.30;99.90
57843;DHT22;43673;51.058;3.734;2022-11-15T20:54:22;13.30;99.90
57843;DHT22;43673;51.058;3.734;2022-11-15T20:56:49;13.30;99.90
57843;DHT22;43673;51.058;3.734;2022-11-15T20:59:16;13.20;99.90
57843;DHT22;43673;51.058;3.734;2022-11-15T21:01:42;13.30;99.90
57843;DHT22;43673;51.058;3.734;2022-11-15T21:04:08;13.20;99.90
57843;DHT22;43673;51.058;3.734;2022-11-15T21:06:49;13.20;99.90
57843;DHT22;43673;51.058;3.734;2022-11-15T21:09:21;13.20;99.90
57843;DHT22;43673;51.058;3.734;2022-11-15T21:12:23;13.30;99.90
57843;DHT22;43673;51.058;3.734;2022-11-15T21:14:49;13.10;99.90
57843;DHT22;43673;51.058;3.734;2022-11-15T21:23:05;13.30;99.90
57843;DHT22;43673;51.058;3.734;2022-11-15T21:25:53;13.40;99.90
57843;DHT22;43673;51.058;3.734;2022-11-15T21:28:42;13.30;99.90
57843;DHT22;43673;51.058;3.734;2022-11-15T21:31:12;13.40;99.90
57843;DHT22;43673;51.058;3.734;2022-11-15T21:33:44;13.40;99.90
57843;DHT22;43673;51.058;3.734;2022-11-15T21:36:12;13.40;99.90
57843;DHT22;43673;51.058;3.734;2022-11-15T21:38:45;13.40;99.90
57843;DHT22;43673;51.058;3.734;2022-11-15T21:41:11;13.30;99.90
57843;DHT22;43673;51.058;3.734;2022-11-15T21:43:37;13.30;99.90
57843;DHT22;43673;51.058;3.734;2022-11-15T21:46:04;13.40;99.90
57843;DHT22;43673;51.058;3.734;2022-11-15T21:48:34;13.40;99.90
57843;DHT22;43673;51.058;3.734;2022-11-15T21:51:05;13.50;99.90
57843;DHT22;43673;51.058;3.734;2022-11-15T21:53:32;13.50;99.90
57843;DHT22;43673;51.058;3.734;2022-11-15T21:56:00;13.50;99.90
57843;DHT22;43673;51.058;3.734;2022-11-15T21:58:27;13.60;99.90
57843;DHT22;43673;51.058;3.734;2022-11-15T22:00:54;13.70;99.90
57843;DHT22;43673;51.058;3.734;2022-11-15T22:03:38;13.70;99.90
57843;DHT22;43673;51.058;3.734;2022-11-15T22:06:04;13.70;99.90
57843;DHT22;43673;51.058;3.734;2022-11-15T22:08:30;13.70;99.90
57843;DHT22;43673;51.058;3.734;2022-11-15T22:10:55;13.60;99.90
57843;DHT22;43673;51.058;3.734;2022-11-15T22:13:22;13.70;99.90
57843;DHT22;43673;51.058;3.734;2022-11-15T22:15:48;13.70;99.90
57843;DHT22;43673;51.058;3.734;2022-11-15T22:18:16;13.70;99.90
57843;DHT22;43673;51.058;3.734;2022-11-15T22:21:13;13.70;99.90
57843;DHT22;43673;51.058;3.734;2022-11-15T22:23:39;13.80;99.90
57843;DHT22;43673;51.058;3.734;2022-11-15T22:26:06;13.80;99.90
57843;DHT22;43673;51.058;3.734;2022-11-15T22:28:52;13.80;99.90
57843;DHT22;43673;51.058;3.734;2022-11-15T22:31:19;13.80;99.90
57843;DHT22;43673;51.058;3.734;2022-11-15T22:33:44;14.00;99.90
57843;DHT22;43673;51.058;3.734;2022-11-15T22:36:11;13.90;99.90
57843;DHT22;43673;51.058;3.734;2022-11-15T22:38:37;13.80;99.90
57843;DHT22;43673;51.058;3.734;2022-11-15T22:41:03;13.90;99.90
57843;DHT22;43673;51.058;3.734;2022-11-15T22:43:32;14.00;99.90
57843;DHT22;43673;51.058;3.734;2022-11-15T22:46:07;13.90;99.90
57843;DHT22;43673;51.058;3.734;2022-11-15T22:48:35;14.00;99.90
57843;DHT22;43673;51.058;3.734;2022-11-15T22:51:01;14.00;99.90
57843;DHT22;43673;51.058;3.734;2022-11-15T22:53:28;14.00;99.90
57843;DHT22;43673;51.058;3.734;2022-11-15T22:55:58;14.00;99.90
57843;DHT22;43673;51.058;3.734;2022-11-15T22:58:27;14.00;99.90
57843;DHT22;43673;51.058;3.734;2022-11-15T23:00:55;14.00;99.90
57843;DHT22;43673;51.058;3.734;2022-11-15T23:03:22;14.00;99.90
57843;DHT22;43673;51.058;3.734;2022-11-15T23:05:48;14.00;99.90
57843;DHT22;43673;51.058;3.734;2022-11-15T23:08:14;14.10;99.90
57843;DHT22;43673;51.058;3.734;2022-11-15T23:10:40;14.10;99.90
57843;DHT22;43673;51.058;3.734;2022-11-15T23:13:26;14.10;99.90
57843;DHT22;43673;51.058;3.734;2022-11-15T23:16:05;14.10;99.90
57843;DHT22;43673;51.058;3.734;2022-11-15T23:18:54;14.10;99.90
57843;DHT22;43673;51.058;3.734;2022-11-15T23:21:23;14.10;99.90
57843;DHT22;43673;51.058;3.734;2022-11-15T23:24:21;14.10;99.90
57843;DHT22;43673;51.058;3.734;2022-11-15T23:26:51;14.10;99.90
57843;DHT22;43673;51.058;3.734;2022-11-15T23:29:18;14.10;99.90
57843;DHT22;43673;51.058;3.734;2022-11-15T23:31:45;14.20;99.90
57843;DHT22;43673;51.058;3.734;2022-11-15T23:34:30;14.10;99.90
57843;DHT22;43673;51.058;3.734;2022-11-15T23:36:57;14.10;99.90
57843;DHT22;43673;51.058;3.734;2022-11-15T23:39:23;14.10;99.90
57843;DHT22;43673;51.058;3.734;2022-11-15T23:41:49;13.80;99.90
57843;DHT22;43673;51.058;3.734;2022-11-15T23:44:15;13.90;99.90
57843;DHT22;43673;51.058;3.734;2022-11-15T23:46:41;13.90;99.90
57843;DHT22;43673;51.058;3.734;2022-11-15T23:49:09;13.80;99.90
57843;DHT22;43673;51.058;3.734;2022-11-15T23:51:35;13.80;99.90
57843;DHT22;43673;51.058;3.734;2022-11-15T23:54:01;13.90;99.90
57843;DHT22;43673;51.058;3.734;2022-11-15T23:56:27;13.80;99.90
57843;DHT22;43673;51.058;3.734;2022-11-15T23:58:53;13.80;99.90
